Terminal Aerodrome Forecast
Issued by NWS Cleveland, OH

Home | Current Version | Previous Version | Text Only | Print | Product List | Glossary On
Versions: 1 2 3 4 5 6 7 8 9 10 11 12 13 14 15 16 17 18 19 20 21 22 23 24 25 26
888
FTUS41 KCLE 230523
TAFCLE
TAF
KCLE 230523Z 2306/2412 19011KT P6SM BKN040
      TEMPO 2309/2313 5SM BR BKN025
     FM231300 24012KT P6SM OVC025
     FM232100 32008KT P6SM VCSH OVC025
     FM240000 01006KT 5SM -RA BR OVC015
     FM240600 06006KT 2SM -RA BR OVC008=

USA.gov is the U.S. government's official web portal to all federal, state and local government web resources and services.